Ellensburg, WA (98926)

10:51 PM PDT on July 26, 2016 (GMT -0700)
Ellensburg WA | | Change Station

Elev 1541 ft 47.00 °N, 120.55 °W | Updated 4 minutes ago

Clear
Clear
71.0 °F
Feels Like 76 °F
N
10.0
Wind Variable Wind from NW
Gusts 14.0 mph

Today
High -- | Low -- °F
--% Chance of Precip.
Yesterday
High -- | Low -- °F
Precip. -- in
Pressure 29.99 in
Visibility 10.0 miles
Clouds Clear
Heat Index 76 °F
Dew Point 57 °F
Humidity 61%
Rainfall 0.00 in
Snow Depth Not available.
5:35 AM 8:41 PM
Waning Gibbous, 47% visible
METAR KELN 270453Z AUTO 31016G23KT 10SM CLR 22/13 A3002 RMK AO2 SLP154 T02220133
Pressure 29.99 in
Visibility 10.0 miles
Clouds Clear
Heat Index 76 °F
Dew Point 57 °F
Humidity 61%
Rainfall 0.00 in
Snow Depth Not available.
5:35 AM 8:41 PM
Waning Gibbous, 47% visible
METAR KELN 270453Z AUTO 31016G23KT 10SM CLR 22/13 A3002 RMK AO2 SLP154 T02220133

10-Day Weather Forecast

Almanac

Astronomy

Jul. 26, 2016 Rise Set
Actual Time
Civil Twilight
Nautical Twilight
Astronomical Twilight
Moon
Length of Visible Light
Length of Day
Tomorrow will be .
, % of the Moon is Illuminated

Today's Extremes

State Highs State Lows

Community

WunderPhotos

Upload Photos

1,927,818 photos uploaded!

WunderBlog® & News

Nearby

Air Quality

  Air Quality AQ Index Pollutant
Not available.

Snow Depth

Station Depth Elevation

Earthquake Activity

City Distance Mag. Time & Date
Minimum magnitude displayed is 2.5.

Coastal Water Temperatures

Place Temperature

Stations

Nearby Weather Stations

Station Location Temp. Windchill Dew Point Humidity Wind Precip. Elev Updated Type
                   

Watches & Warnings

There are currently no watches in effect.